sensor_id;sensor_type;location;lat;lon;timestamp;P1;durP1;ratioP1;P2;durP2;ratioP2
23362;SDS011;11853;48.080;11.960;2023-11-18T00:01:30;6.45;;;5.85;;
23362;SDS011;11853;48.080;11.960;2023-11-18T00:03:57;5.82;;;5.32;;
23362;SDS011;11853;48.080;11.960;2023-11-18T00:06:23;5.97;;;5.47;;
23362;SDS011;11853;48.080;11.960;2023-11-18T00:08:48;6.07;;;5.47;;
23362;SDS011;11853;48.080;11.960;2023-11-18T00:11:15;5.85;;;5.30;;
23362;SDS011;11853;48.080;11.960;2023-11-18T00:13:40;6.25;;;5.65;;
23362;SDS011;11853;48.080;11.960;2023-11-18T00:16:09;6.55;;;5.95;;
23362;SDS011;11853;48.080;11.960;2023-11-18T00:18:41;6.03;;;5.53;;
23362;SDS011;11853;48.080;11.960;2023-11-18T00:21:09;6.65;;;6.00;;
23362;SDS011;11853;48.080;11.960;2023-11-18T00:23:37;6.85;;;6.25;;
23362;SDS011;11853;48.080;11.960;2023-11-18T00:26:04;7.20;;;6.32;;
23362;SDS011;11853;48.080;11.960;2023-11-18T00:28:32;6.72;;;6.03;;
23362;SDS011;11853;48.080;11.960;2023-11-18T00:30:57;5.93;;;5.50;;
23362;SDS011;11853;48.080;11.960;2023-11-18T00:33:23;6.47;;;5.88;;
23362;SDS011;11853;48.080;11.960;2023-11-18T00:35:48;6.70;;;6.10;;
23362;SDS011;11853;48.080;11.960;2023-11-18T00:38:14;7.45;;;5.97;;
23362;SDS011;11853;48.080;11.960;2023-11-18T00:40:40;6.97;;;6.32;;
23362;SDS011;11853;48.080;11.960;2023-11-18T00:43:06;6.50;;;5.90;;
23362;SDS011;11853;48.080;11.960;2023-11-18T00:45:34;7.00;;;6.40;;
23362;SDS011;11853;48.080;11.960;2023-11-18T00:48:00;6.63;;;6.03;;
23362;SDS011;11853;48.080;11.960;2023-11-18T00:50:26;7.10;;;6.40;;
23362;SDS011;11853;48.080;11.960;2023-11-18T00:52:51;6.63;;;6.03;;
23362;SDS011;11853;48.080;11.960;2023-11-18T00:55:17;6.47;;;5.88;;
23362;SDS011;11853;48.080;11.960;2023-11-18T00:57:44;6.30;;;5.80;;
23362;SDS011;11853;48.080;11.960;2023-11-18T01:00:13;6.53;;;5.93;;
23362;SDS011;11853;48.080;11.960;2023-11-18T01:02:41;6.45;;;5.88;;
23362;SDS011;11853;48.080;11.960;2023-11-18T01:05:08;7.95;;;6.25;;
23362;SDS011;11853;48.080;11.960;2023-11-18T01:07:35;7.53;;;6.82;;
23362;SDS011;11853;48.080;11.960;2023-11-18T01:10:01;6.38;;;5.88;;
23362;SDS011;11853;48.080;11.960;2023-11-18T01:12:28;6.40;;;5.80;;
23362;SDS011;11853;48.080;11.960;2023-11-18T01:14:57;6.13;;;5.72;;
23362;SDS011;11853;48.080;11.960;2023-11-18T01:17:23;5.95;;;5.45;;
23362;SDS011;11853;48.080;11.960;2023-11-18T01:19:49;5.90;;;5.40;;
23362;SDS011;11853;48.080;11.960;2023-11-18T01:22:15;6.35;;;5.70;;
23362;SDS011;11853;48.080;11.960;2023-11-18T01:24:41;6.35;;;5.80;;
23362;SDS011;11853;48.080;11.960;2023-11-18T01:27:10;6.53;;;5.93;;
23362;SDS011;11853;48.080;11.960;2023-11-18T01:29:36;6.75;;;6.15;;
23362;SDS011;11853;48.080;11.960;2023-11-18T01:32:01;7.28;;;5.85;;
23362;SDS011;11853;48.080;11.960;2023-11-18T01:34:37;6.78;;;6.18;;
23362;SDS011;11853;48.080;11.960;2023-11-18T01:37:04;6.57;;;5.90;;
23362;SDS011;11853;48.080;11.960;2023-11-18T01:39:34;6.00;;;5.53;;
23362;SDS011;11853;48.080;11.960;2023-11-18T01:42:01;6.57;;;5.97;;
23362;SDS011;11853;48.080;11.960;2023-11-18T01:44:29;5.85;;;5.25;;
23362;SDS011;11853;48.080;11.960;2023-11-18T01:46:56;5.55;;;5.15;;
23362;SDS011;11853;48.080;11.960;2023-11-18T01:49:22;5.90;;;5.05;;
23362;SDS011;11853;48.080;11.960;2023-11-18T01:51:49;6.03;;;5.25;;
23362;SDS011;11853;48.080;11.960;2023-11-18T01:54:16;5.07;;;4.68;;
23362;SDS011;11853;48.080;11.960;2023-11-18T01:56:45;5.70;;;5.20;;
23362;SDS011;11853;48.080;11.960;2023-11-18T01:59:12;5.68;;;5.18;;
23362;SDS011;11853;48.080;11.960;2023-11-18T02:01:50;4.68;;;4.38;;
23362;SDS011;11853;48.080;11.960;2023-11-18T02:04:18;4.97;;;4.57;;
23362;SDS011;11853;48.080;11.960;2023-11-18T02:06:45;5.30;;;4.88;;
23362;SDS011;11853;48.080;11.960;2023-11-18T02:09:14;4.95;;;4.47;;
23362;SDS011;11853;48.080;11.960;2023-11-18T02:12:08;4.57;;;4.18;;
23362;SDS011;11853;48.080;11.960;2023-11-18T02:14:35;4.53;;;4.22;;
23362;SDS011;11853;48.080;11.960;2023-11-18T02:17:05;4.15;;;3.85;;
23362;SDS011;11853;48.080;11.960;2023-11-18T02:19:38;4.68;;;4.28;;
23362;SDS011;11853;48.080;11.960;2023-11-18T02:22:05;4.10;;;3.70;;
23362;SDS011;11853;48.080;11.960;2023-11-18T02:24:32;4.07;;;3.78;;
23362;SDS011;11853;48.080;11.960;2023-11-18T02:27:02;4.53;;;4.13;;
23362;SDS011;11853;48.080;11.960;2023-11-18T02:29:35;4.07;;;3.78;;
23362;SDS011;11853;48.080;11.960;2023-11-18T02:35:10;3.60;;;3.40;;
23362;SDS011;11853;48.080;11.960;2023-11-18T02:38:00;3.88;;;3.58;;
23362;SDS011;11853;48.080;11.960;2023-11-18T02:40:29;3.88;;;3.58;;
23362;SDS011;11853;48.080;11.960;2023-11-18T02:43:00;3.22;;;3.03;;
23362;SDS011;11853;48.080;11.960;2023-11-18T02:45:26;3.50;;;3.20;;
23362;SDS011;11853;48.080;11.960;2023-11-18T02:47:53;3.40;;;3.10;;
23362;SDS011;11853;48.080;11.960;2023-11-18T02:50:25;3.95;;;3.65;;
23362;SDS011;11853;48.080;11.960;2023-11-18T02:52:52;3.60;;;3.33;;
23362;SDS011;11853;48.080;11.960;2023-11-18T02:55:19;3.38;;;3.17;;
23362;SDS011;11853;48.080;11.960;2023-11-18T02:57:46;3.70;;;3.40;;
23362;SDS011;11853;48.080;11.960;2023-11-18T03:00:12;3.08;;;2.85;;
23362;SDS011;11853;48.080;11.960;2023-11-18T03:02:44;4.25;;;3.15;;
23362;SDS011;11853;48.080;11.960;2023-11-18T03:05:12;3.00;;;2.80;;
23362;SDS011;11853;48.080;11.960;2023-11-18T03:07:40;3.20;;;3.00;;
23362;SDS011;11853;48.080;11.960;2023-11-18T03:10:07;3.05;;;2.80;;
23362;SDS011;11853;48.080;11.960;2023-11-18T03:12:36;3.30;;;3.10;;
23362;SDS011;11853;48.080;11.960;2023-11-18T03:15:05;2.78;;;2.65;;
23362;SDS011;11853;48.080;11.960;2023-11-18T03:17:34;3.22;;;3.03;;
23362;SDS011;11853;48.080;11.960;2023-11-18T03:20:03;3.13;;;2.92;;
23362;SDS011;11853;48.080;11.960;2023-11-18T03:22:30;3.17;;;2.97;;
23362;SDS011;11853;48.080;11.960;2023-11-18T03:24:56;2.40;;;2.30;;
23362;SDS011;11853;48.080;11.960;2023-11-18T03:27:22;3.22;;;3.03;;
23362;SDS011;11853;48.080;11.960;2023-11-18T03:29:48;2.97;;;2.70;;
23362;SDS011;11853;48.080;11.960;2023-11-18T03:32:13;3.20;;;3.00;;
23362;SDS011;11853;48.080;11.960;2023-11-18T03:34:39;2.83;;;2.63;;
23362;SDS011;11853;48.080;11.960;2023-11-18T03:37:05;2.80;;;2.60;;
23362;SDS011;11853;48.080;11.960;2023-11-18T03:39:30;2.88;;;2.67;;
23362;SDS011;11853;48.080;11.960;2023-11-18T03:41:56;3.03;;;2.75;;
23362;SDS011;11853;48.080;11.960;2023-11-18T03:44:22;3.05;;;2.85;;
23362;SDS011;11853;48.080;11.960;2023-11-18T03:46:49;2.90;;;2.70;;
23362;SDS011;11853;48.080;11.960;2023-11-18T03:49:15;2.85;;;2.65;;
23362;SDS011;11853;48.080;11.960;2023-11-18T03:51:40;3.05;;;2.72;;
23362;SDS011;11853;48.080;11.960;2023-11-18T03:54:06;2.92;;;2.65;;
23362;SDS011;11853;48.080;11.960;2023-11-18T03:56:33;2.92;;;2.72;;
23362;SDS011;11853;48.080;11.960;2023-11-18T03:58:59;3.35;;;3.05;;
23362;SDS011;11853;48.080;11.960;2023-11-18T04:01:25;3.80;;;3.00;;
23362;SDS011;11853;48.080;11.960;2023-11-18T04:03:52;2.85;;;2.65;;
23362;SDS011;11853;48.080;11.960;2023-11-18T04:06:18;3.10;;;2.88;;
23362;SDS011;11853;48.080;11.960;2023-11-18T04:08:47;3.13;;;2.85;;
23362;SDS011;11853;48.080;11.960;2023-11-18T04:11:14;3.30;;;3.10;;
23362;SDS011;11853;48.080;11.960;2023-11-18T04:13:40;3.28;;;3.08;;
23362;SDS011;11853;48.080;11.960;2023-11-18T04:16:11;3.50;;;3.28;;
23362;SDS011;11853;48.080;11.960;2023-11-18T04:18:41;3.53;;;3.33;;
23362;SDS011;11853;48.080;11.960;2023-11-18T04:21:11;3.13;;;2.67;;
23362;SDS011;11853;48.080;11.960;2023-11-18T04:26:25;3.38;;;3.17;;
23362;SDS011;11853;48.080;11.960;2023-11-18T04:28:53;3.58;;;3.28;;
23362;SDS011;11853;48.080;11.960;2023-11-18T04:31:19;3.20;;;3.00;;
23362;SDS011;11853;48.080;11.960;2023-11-18T04:33:46;3.35;;;3.15;;
23362;SDS011;11853;48.080;11.960;2023-11-18T04:36:12;3.28;;;3.03;;
23362;SDS011;11853;48.080;11.960;2023-11-18T04:42:15;3.40;;;3.10;;
23362;SDS011;11853;48.080;11.960;2023-11-18T04:44:40;3.28;;;3.08;;
23362;SDS011;11853;48.080;11.960;2023-11-18T04:47:06;3.50;;;3.30;;
23362;SDS011;11853;48.080;11.960;2023-11-18T04:49:33;3.28;;;3.08;;
23362;SDS011;11853;48.080;11.960;2023-11-18T04:52:00;3.40;;;3.15;;
23362;SDS011;11853;48.080;11.960;2023-11-18T04:54:25;3.50;;;3.20;;
23362;SDS011;11853;48.080;11.960;2023-11-18T04:56:51;4.20;;;3.90;;
23362;SDS011;11853;48.080;11.960;2023-11-18T04:59:17;4.15;;;3.75;;
23362;SDS011;11853;48.080;11.960;2023-11-18T05:01:43;3.40;;;3.20;;
23362;SDS011;11853;48.080;11.960;2023-11-18T05:04:09;3.47;;;3.17;;
23362;SDS011;11853;48.080;11.960;2023-11-18T05:06:36;3.65;;;3.35;;
23362;SDS011;11853;48.080;11.960;2023-11-18T05:09:01;3.17;;;2.97;;
23362;SDS011;11853;48.080;11.960;2023-11-18T05:11:27;3.83;;;3.42;;
23362;SDS011;11853;48.080;11.960;2023-11-18T05:13:53;3.30;;;3.10;;
23362;SDS011;11853;48.080;11.960;2023-11-18T05:16:19;3.58;;;3.38;;
23362;SDS011;11853;48.080;11.960;2023-11-18T05:18:44;3.90;;;3.50;;
23362;SDS011;11853;48.080;11.960;2023-11-18T05:21:10;3.72;;;3.45;;
23362;SDS011;11853;48.080;11.960;2023-11-18T05:23:36;4.05;;;3.75;;
23362;SDS011;11853;48.080;11.960;2023-11-18T05:26:02;3.97;;;3.67;;
23362;SDS011;11853;48.080;11.960;2023-11-18T05:28:31;3.92;;;3.63;;
23362;SDS011;11853;48.080;11.960;2023-11-18T05:30:57;4.10;;;3.80;;
23362;SDS011;11853;48.080;11.960;2023-11-18T05:33:23;4.85;;;3.83;;
23362;SDS011;11853;48.080;11.960;2023-11-18T05:35:49;4.15;;;3.85;;
23362;SDS011;11853;48.080;11.960;2023-11-18T05:38:18;4.07;;;3.78;;
23362;SDS011;11853;48.080;11.960;2023-11-18T05:40:47;3.95;;;3.67;;
23362;SDS011;11853;48.080;11.960;2023-11-18T05:43:26;4.18;;;3.85;;
23362;SDS011;11853;48.080;11.960;2023-11-18T05:46:04;4.25;;;3.95;;
23362;SDS011;11853;48.080;11.960;2023-11-18T05:48:46;4.30;;;3.90;;
23362;SDS011;11853;48.080;11.960;2023-11-18T05:51:12;4.55;;;4.15;;
23362;SDS011;11853;48.080;11.960;2023-11-18T05:53:41;4.70;;;4.30;;
23362;SDS011;11853;48.080;11.960;2023-11-18T05:56:10;4.43;;;4.05;;
23362;SDS011;11853;48.080;11.960;2023-11-18T05:58:37;6.22;;;4.43;;
23362;SDS011;11853;48.080;11.960;2023-11-18T06:01:05;4.82;;;4.43;;
23362;SDS011;11853;48.080;11.960;2023-11-18T06:03:34;4.85;;;4.50;;
23362;SDS011;11853;48.080;11.960;2023-11-18T06:06:09;4.47;;;4.18;;
23362;SDS011;11853;48.080;11.960;2023-11-18T06:08:37;4.80;;;4.40;;
23362;SDS011;11853;48.080;11.960;2023-11-18T06:11:07;4.45;;;4.15;;
23362;SDS011;11853;48.080;11.960;2023-11-18T06:13:40;4.82;;;4.45;;
23362;SDS011;11853;48.080;11.960;2023-11-18T06:16:10;4.57;;;4.28;;
23362;SDS011;11853;48.080;11.960;2023-11-18T06:18:40;4.95;;;4.55;;
23362;SDS011;11853;48.080;11.960;2023-11-18T06:21:07;4.80;;;4.50;;
23362;SDS011;11853;48.080;11.960;2023-11-18T06:23:36;4.03;;;3.72;;
23362;SDS011;11853;48.080;11.960;2023-11-18T06:26:02;4.60;;;4.22;;
23362;SDS011;11853;48.080;11.960;2023-11-18T06:28:29;4.20;;;3.90;;
23362;SDS011;11853;48.080;11.960;2023-11-18T06:30:55;5.00;;;4.50;;
23362;SDS011;11853;48.080;11.960;2023-11-18T06:33:21;4.60;;;4.20;;
23362;SDS011;11853;48.080;11.960;2023-11-18T06:35:48;4.80;;;4.28;;
23362;SDS011;11853;48.080;11.960;2023-11-18T06:38:14;4.70;;;4.30;;
23362;SDS011;11853;48.080;11.960;2023-11-18T06:40:43;4.22;;;3.92;;
23362;SDS011;11853;48.080;11.960;2023-11-18T06:43:11;4.15;;;3.85;;
23362;SDS011;11853;48.080;11.960;2023-11-18T06:45:37;4.32;;;4.03;;
23362;SDS011;11853;48.080;11.960;2023-11-18T06:48:08;4.68;;;4.38;;
23362;SDS011;11853;48.080;11.960;2023-11-18T06:50:34;4.10;;;3.80;;
23362;SDS011;11853;48.080;11.960;2023-11-18T06:53:00;4.18;;;3.88;;
23362;SDS011;11853;48.080;11.960;2023-11-18T06:55:26;4.35;;;4.05;;
23362;SDS011;11853;48.080;11.960;2023-11-18T06:57:52;4.90;;;4.50;;
23362;SDS011;11853;48.080;11.960;2023-11-18T07:00:24;4.28;;;3.97;;
23362;SDS011;11853;48.080;11.960;2023-11-18T07:02:53;4.57;;;4.20;;
23362;SDS011;11853;48.080;11.960;2023-11-18T07:05:19;5.93;;;5.43;;
23362;SDS011;11853;48.080;11.960;2023-11-18T07:07:45;5.53;;;5.13;;
23362;SDS011;11853;48.080;11.960;2023-11-18T07:10:11;6.13;;;5.63;;
23362;SDS011;11853;48.080;11.960;2023-11-18T07:12:38;5.10;;;4.70;;
23362;SDS011;11853;48.080;11.960;2023-11-18T07:15:04;4.90;;;4.50;;
23362;SDS011;11853;48.080;11.960;2023-11-18T07:17:42;4.80;;;4.40;;
23362;SDS011;11853;48.080;11.960;2023-11-18T07:20:08;4.80;;;4.40;;
23362;SDS011;11853;48.080;11.960;2023-11-18T07:22:38;4.80;;;4.40;;
23362;SDS011;11853;48.080;11.960;2023-11-18T07:25:04;4.53;;;4.22;;
23362;SDS011;11853;48.080;11.960;2023-11-18T07:27:33;4.63;;;4.22;;
23362;SDS011;11853;48.080;11.960;2023-11-18T07:30:00;3.65;;;3.35;;
23362;SDS011;11853;48.080;11.960;2023-11-18T07:32:26;4.90;;;4.03;;
23362;SDS011;11853;48.080;11.960;2023-11-18T07:34:52;4.72;;;4.32;;
23362;SDS011;11853;48.080;11.960;2023-11-18T07:37:21;5.68;;;4.90;;
23362;SDS011;11853;48.080;11.960;2023-11-18T07:39:47;5.45;;;4.88;;
23362;SDS011;11853;48.080;11.960;2023-11-18T07:42:13;15.52;;;11.27;;
23362;SDS011;11853;48.080;11.960;2023-11-18T07:44:40;14.65;;;11.07;;
23362;SDS011;11853;48.080;11.960;2023-11-18T07:47:11;14.85;;;10.85;;
23362;SDS011;11853;48.080;11.960;2023-11-18T07:49:36;10.32;;;7.15;;
23362;SDS011;11853;48.080;11.960;2023-11-18T07:52:02;5.80;;;5.10;;
23362;SDS011;11853;48.080;11.960;2023-11-18T07:54:28;4.85;;;4.45;;
23362;SDS011;11853;48.080;11.960;2023-11-18T07:57:03;4.18;;;3.88;;
23362;SDS011;11853;48.080;11.960;2023-11-18T07:59:36;4.63;;;4.22;;
23362;SDS011;11853;48.080;11.960;2023-11-18T08:02:02;3.97;;;3.67;;
23362;SDS011;11853;48.080;11.960;2023-11-18T08:04:34;5.10;;;4.60;;
23362;SDS011;11853;48.080;11.960;2023-11-18T08:07:00;4.55;;;4.15;;
23362;SDS011;11853;48.080;11.960;2023-11-18T08:09:26;4.80;;;4.30;;
23362;SDS011;11853;48.080;11.960;2023-11-18T08:11:52;4.70;;;4.30;;
23362;SDS011;11853;48.080;11.960;2023-11-18T08:14:20;5.95;;;4.55;;
23362;SDS011;11853;48.080;11.960;2023-11-18T08:16:46;5.28;;;4.78;;
23362;SDS011;11853;48.080;11.960;2023-11-18T08:19:12;5.43;;;4.95;;
23362;SDS011;11853;48.080;11.960;2023-11-18T08:21:38;4.82;;;4.43;;
23362;SDS011;11853;48.080;11.960;2023-11-18T08:24:05;4.47;;;4.07;;
23362;SDS011;11853;48.080;11.960;2023-11-18T08:26:36;4.63;;;4.22;;
23362;SDS011;11853;48.080;11.960;2023-11-18T08:29:01;4.30;;;3.90;;
23362;SDS011;11853;48.080;11.960;2023-11-18T08:31:28;5.10;;;4.68;;
23362;SDS011;11853;48.080;11.960;2023-11-18T08:33:53;5.70;;;5.10;;
23362;SDS011;11853;48.080;11.960;2023-11-18T08:36:20;6.10;;;5.60;;
23362;SDS011;11853;48.080;11.960;2023-11-18T08:38:47;5.75;;;5.25;;
23362;SDS011;11853;48.080;11.960;2023-11-18T08:41:14;5.50;;;5.00;;
23362;SDS011;11853;48.080;11.960;2023-11-18T08:43:40;4.38;;;3.97;;
23362;SDS011;11853;48.080;11.960;2023-11-18T08:46:06;5.47;;;4.40;;
23362;SDS011;11853;48.080;11.960;2023-11-18T08:48:32;6.50;;;5.00;;
23362;SDS011;11853;48.080;11.960;2023-11-18T08:51:03;6.22;;;5.57;;
23362;SDS011;11853;48.080;11.960;2023-11-18T08:53:30;5.55;;;4.80;;
23362;SDS011;11853;48.080;11.960;2023-11-18T08:56:02;5.88;;;5.28;;
23362;SDS011;11853;48.080;11.960;2023-11-18T08:58:30;5.72;;;4.72;;
23362;SDS011;11853;48.080;11.960;2023-11-18T09:00:59;5.10;;;4.60;;
23362;SDS011;11853;48.080;11.960;2023-11-18T09:03:38;4.78;;;4.28;;
23362;SDS011;11853;48.080;11.960;2023-11-18T09:06:08;5.20;;;4.70;;
23362;SDS011;11853;48.080;11.960;2023-11-18T09:08:50;4.93;;;4.28;;
23362;SDS011;11853;48.080;11.960;2023-11-18T09:11:21;4.50;;;3.85;;
23362;SDS011;11853;48.080;11.960;2023-11-18T09:13:48;4.60;;;4.20;;
23362;SDS011;11853;48.080;11.960;2023-11-18T09:16:26;4.65;;;4.25;;
23362;SDS011;11853;48.080;11.960;2023-11-18T09:18:54;4.65;;;4.25;;
23362;SDS011;11853;48.080;11.960;2023-11-18T09:21:23;4.45;;;4.05;;
23362;SDS011;11853;48.080;11.960;2023-11-18T09:23:52;5.50;;;4.78;;
23362;SDS011;11853;48.080;11.960;2023-11-18T09:26:20;5.20;;;4.70;;
23362;SDS011;11853;48.080;11.960;2023-11-18T09:28:46;3.92;;;3.63;;
23362;SDS011;11853;48.080;11.960;2023-11-18T09:31:15;4.68;;;4.20;;
23362;SDS011;11853;48.080;11.960;2023-11-18T09:33:43;4.20;;;3.90;;
23362;SDS011;11853;48.080;11.960;2023-11-18T09:36:17;4.80;;;4.32;;
23362;SDS011;11853;48.080;11.960;2023-11-18T09:38:43;4.22;;;3.92;;
23362;SDS011;11853;48.080;11.960;2023-11-18T09:41:12;4.80;;;4.40;;
23362;SDS011;11853;48.080;11.960;2023-11-18T09:43:41;5.50;;;4.28;;
23362;SDS011;11853;48.080;11.960;2023-11-18T09:46:11;4.50;;;4.10;;
23362;SDS011;11853;48.080;11.960;2023-11-18T09:48:47;4.72;;;4.30;;
23362;SDS011;11853;48.080;11.960;2023-11-18T09:51:25;3.90;;;3.60;;
23362;SDS011;11853;48.080;11.960;2023-11-18T09:54:04;3.72;;;3.42;;
23362;SDS011;11853;48.080;11.960;2023-11-18T09:59:11;4.65;;;4.25;;
23362;SDS011;11853;48.080;11.960;2023-11-18T10:01:42;4.78;;;4.38;;
23362;SDS011;11853;48.080;11.960;2023-11-18T10:04:12;4.40;;;4.00;;
23362;SDS011;11853;48.080;11.960;2023-11-18T10:06:43;3.58;;;3.15;;
23362;SDS011;11853;48.080;11.960;2023-11-18T10:09:11;3.55;;;3.20;;
23362;SDS011;11853;48.080;11.960;2023-11-18T10:11:44;3.60;;;3.30;;
23362;SDS011;11853;48.080;11.960;2023-11-18T10:14:13;2.83;;;2.63;;
23362;SDS011;11853;48.080;11.960;2023-11-18T10:16:43;3.28;;;2.97;;
23362;SDS011;11853;48.080;11.960;2023-11-18T10:19:12;3.13;;;2.92;;
23362;SDS011;11853;48.080;11.960;2023-11-18T10:21:39;3.45;;;3.10;;
23362;SDS011;11853;48.080;11.960;2023-11-18T10:24:06;3.50;;;3.20;;
23362;SDS011;11853;48.080;11.960;2023-11-18T10:26:44;3.45;;;3.20;;
23362;SDS011;11853;48.080;11.960;2023-11-18T10:29:20;3.38;;;2.97;;
23362;SDS011;11853;48.080;11.960;2023-11-18T10:31:46;4.00;;;3.30;;
23362;SDS011;11853;48.080;11.960;2023-11-18T10:34:13;4.63;;;3.72;;
23362;SDS011;11853;48.080;11.960;2023-11-18T10:36:58;4.45;;;4.00;;
23362;SDS011;11853;48.080;11.960;2023-11-18T10:39:31;3.58;;;3.13;;
23362;SDS011;11853;48.080;11.960;2023-11-18T10:42:03;3.28;;;2.58;;
23362;SDS011;11853;48.080;11.960;2023-11-18T10:44:29;2.60;;;2.38;;
23362;SDS011;11853;48.080;11.960;2023-11-18T10:46:55;2.25;;;2.13;;
23362;SDS011;11853;48.080;11.960;2023-11-18T10:49:26;2.65;;;2.42;;
23362;SDS011;11853;48.080;11.960;2023-11-18T10:52:01;2.33;;;2.00;;
23362;SDS011;11853;48.080;11.960;2023-11-18T10:54:35;2.42;;;2.10;;
23362;SDS011;11853;48.080;11.960;2023-11-18T10:57:02;1.90;;;1.80;;
23362;SDS011;11853;48.080;11.960;2023-11-18T10:59:32;2.20;;;1.83;;
23362;SDS011;11853;48.080;11.960;2023-11-18T11:01:58;2.40;;;1.80;;
23362;SDS011;11853;48.080;11.960;2023-11-18T11:04:24;2.28;;;2.08;;
23362;SDS011;11853;48.080;11.960;2023-11-18T11:06:50;2.88;;;1.73;;
23362;SDS011;11853;48.080;11.960;2023-11-18T11:09:22;2.33;;;1.75;;
23362;SDS011;11853;48.080;11.960;2023-11-18T11:12:03;2.42;;;2.22;;
23362;SDS011;11853;48.080;11.960;2023-11-18T11:14:42;1.98;;;1.77;;
23362;SDS011;11853;48.080;11.960;2023-11-18T11:17:24;2.40;;;2.20;;
23362;SDS011;11853;48.080;11.960;2023-11-18T11:22:45;2.15;;;1.95;;
23362;SDS011;11853;48.080;11.960;2023-11-18T11:25:22;1.95;;;1.85;;
23362;SDS011;11853;48.080;11.960;2023-11-18T11:28:07;2.03;;;1.92;;
23362;SDS011;11853;48.080;11.960;2023-11-18T11:33:33;4.88;;;1.90;;
23362;SDS011;11853;48.080;11.960;2023-11-18T11:36:21;3.03;;;1.77;;
23362;SDS011;11853;48.080;11.960;2023-11-18T11:38:52;2.00;;;1.60;;
23362;SDS011;11853;48.080;11.960;2023-11-18T11:41:21;1.23;;;1.10;;
23362;SDS011;11853;48.080;11.960;2023-11-18T11:43:52;1.70;;;1.60;;
23362;SDS011;11853;48.080;11.960;2023-11-18T11:46:23;1.33;;;1.30;;
23362;SDS011;11853;48.080;11.960;2023-11-18T11:48:52;1.30;;;1.17;;
23362;SDS011;11853;48.080;11.960;2023-11-18T11:57:10;1.67;;;1.48;;
23362;SDS011;11853;48.080;11.960;2023-11-18T12:04:46;1.50;;;1.40;;
23362;SDS011;11853;48.080;11.960;2023-11-18T12:07:17;1.45;;;1.35;;
23362;SDS011;11853;48.080;11.960;2023-11-18T12:09:58;2.08;;;1.80;;
23362;SDS011;11853;48.080;11.960;2023-11-18T12:12:26;1.90;;;1.80;;
23362;SDS011;11853;48.080;11.960;2023-11-18T12:14:53;1.90;;;1.58;;
23362;SDS011;11853;48.080;11.960;2023-11-18T12:23:28;2.20;;;1.70;;
23362;SDS011;11853;48.080;11.960;2023-11-18T12:25:55;2.58;;;2.00;;
23362;SDS011;11853;48.080;11.960;2023-11-18T12:28:26;2.20;;;2.00;;
23362;SDS011;11853;48.080;11.960;2023-11-18T12:30:56;7.53;;;4.85;;
23362;SDS011;11853;48.080;11.960;2023-11-18T12:41:39;2.33;;;1.58;;
23362;SDS011;11853;48.080;11.960;2023-11-18T12:46:52;3.45;;;2.47;;
23362;SDS011;11853;48.080;11.960;2023-11-18T12:49:43;2.08;;;1.88;;
23362;SDS011;11853;48.080;11.960;2023-11-18T12:52:12;1.60;;;1.30;;
23362;SDS011;11853;48.080;11.960;2023-11-18T12:54:43;2.75;;;1.30;;
23362;SDS011;11853;48.080;11.960;2023-11-18T12:57:10;1.42;;;1.10;;
23362;SDS011;11853;48.080;11.960;2023-11-18T12:59:39;1.85;;;1.70;;
23362;SDS011;11853;48.080;11.960;2023-11-18T13:02:09;1.80;;;1.40;;
23362;SDS011;11853;48.080;11.960;2023-11-18T13:04:40;1.10;;;1.00;;
23362;SDS011;11853;48.080;11.960;2023-11-18T13:07:06;1.00;;;1.00;;
23362;SDS011;11853;48.080;11.960;2023-11-18T13:09:36;1.00;;;1.00;;
23362;SDS011;11853;48.080;11.960;2023-11-18T13:12:04;1.65;;;1.50;;
23362;SDS011;11853;48.080;11.960;2023-11-18T13:14:33;1.10;;;1.00;;
23362;SDS011;11853;48.080;11.960;2023-11-18T13:17:04;1.27;;;0.90;;
23362;SDS011;11853;48.080;11.960;2023-11-18T13:19:33;1.95;;;1.58;;
23362;SDS011;11853;48.080;11.960;2023-11-18T13:22:04;3.13;;;1.98;;
23362;SDS011;11853;48.080;11.960;2023-11-18T13:24:34;2.53;;;1.88;;
23362;SDS011;11853;48.080;11.960;2023-11-18T13:27:01;1.65;;;1.52;;
23362;SDS011;11853;48.080;11.960;2023-11-18T13:29:29;2.30;;;1.70;;
23362;SDS011;11853;48.080;11.960;2023-11-18T13:31:56;2.05;;;1.40;;
23362;SDS011;11853;48.080;11.960;2023-11-18T13:34:23;2.55;;;1.40;;
23362;SDS011;11853;48.080;11.960;2023-11-18T13:36:50;1.67;;;1.52;;
23362;SDS011;11853;48.080;11.960;2023-11-18T13:39:19;1.50;;;1.40;;
23362;SDS011;11853;48.080;11.960;2023-11-18T13:41:48;3.00;;;1.10;;
23362;SDS011;11853;48.080;11.960;2023-11-18T13:44:33;1.13;;;1.10;;
23362;SDS011;11853;48.080;11.960;2023-11-18T13:47:00;0.93;;;0.88;;
23362;SDS011;11853;48.080;11.960;2023-11-18T13:49:33;1.05;;;1.00;;
23362;SDS011;11853;48.080;11.960;2023-11-18T13:52:01;1.73;;;1.00;;
23362;SDS011;11853;48.080;11.960;2023-11-18T13:54:29;1.88;;;0.95;;
23362;SDS011;11853;48.080;11.960;2023-11-18T13:56:58;1.35;;;1.25;;
23362;SDS011;11853;48.080;11.960;2023-11-18T13:59:25;1.17;;;1.17;;
23362;SDS011;11853;48.080;11.960;2023-11-18T14:01:52;1.20;;;1.10;;
23362;SDS011;11853;48.080;11.960;2023-11-18T14:04:24;1.17;;;1.08;;
23362;SDS011;11853;48.080;11.960;2023-11-18T14:06:53;2.13;;;0.85;;
23362;SDS011;11853;48.080;11.960;2023-11-18T14:09:22;1.35;;;0.77;;
23362;SDS011;11853;48.080;11.960;2023-11-18T14:11:53;1.17;;;1.08;;
23362;SDS011;11853;48.080;11.960;2023-11-18T14:14:22;1.42;;;1.27;;
23362;SDS011;11853;48.080;11.960;2023-11-18T14:16:53;1.95;;;1.83;;
23362;SDS011;11853;48.080;11.960;2023-11-18T14:19:23;2.13;;;1.45;;
23362;SDS011;11853;48.080;11.960;2023-11-18T14:21:55;2.17;;;1.90;;
23362;SDS011;11853;48.080;11.960;2023-11-18T14:24:21;2.55;;;1.80;;
23362;SDS011;11853;48.080;11.960;2023-11-18T14:26:56;1.42;;;1.33;;
23362;SDS011;11853;48.080;11.960;2023-11-18T14:29:22;1.50;;;1.40;;
23362;SDS011;11853;48.080;11.960;2023-11-18T14:31:48;1.90;;;1.80;;
23362;SDS011;11853;48.080;11.960;2023-11-18T14:34:16;2.05;;;1.95;;
23362;SDS011;11853;48.080;11.960;2023-11-18T14:36:43;1.40;;;1.25;;
23362;SDS011;11853;48.080;11.960;2023-11-18T14:39:10;3.25;;;2.53;;
23362;SDS011;11853;48.080;11.960;2023-11-18T14:41:43;6.55;;;4.35;;
23362;SDS011;11853;48.080;11.960;2023-11-18T14:44:10;4.82;;;4.03;;
23362;SDS011;11853;48.080;11.960;2023-11-18T14:46:36;3.28;;;2.97;;
23362;SDS011;11853;48.080;11.960;2023-11-18T14:49:06;3.22;;;2.03;;
23362;SDS011;11853;48.080;11.960;2023-11-18T14:51:32;3.28;;;2.20;;
23362;SDS011;11853;48.080;11.960;2023-11-18T14:53:58;2.80;;;2.10;;
23362;SDS011;11853;48.080;11.960;2023-11-18T14:56:24;2.15;;;1.80;;
23362;SDS011;11853;48.080;11.960;2023-11-18T14:58:49;2.10;;;1.85;;
23362;SDS011;11853;48.080;11.960;2023-11-18T15:01:15;3.42;;;2.80;;
23362;SDS011;11853;48.080;11.960;2023-11-18T15:03:43;3.97;;;3.03;;
23362;SDS011;11853;48.080;11.960;2023-11-18T15:06:11;4.63;;;4.22;;
23362;SDS011;11853;48.080;11.960;2023-11-18T15:08:37;7.18;;;6.47;;
23362;SDS011;11853;48.080;11.960;2023-11-18T15:11:09;6.03;;;5.53;;
23362;SDS011;11853;48.080;11.960;2023-11-18T15:13:35;4.60;;;4.20;;
23362;SDS011;11853;48.080;11.960;2023-11-18T15:16:02;3.40;;;2.72;;
23362;SDS011;11853;48.080;11.960;2023-11-18T15:18:29;4.00;;;2.85;;
23362;SDS011;11853;48.080;11.960;2023-11-18T15:20:54;3.55;;;3.28;;
23362;SDS011;11853;48.080;11.960;2023-11-18T15:23:21;4.82;;;3.97;;
23362;SDS011;11853;48.080;11.960;2023-11-18T15:25:47;5.88;;;4.78;;
23362;SDS011;11853;48.080;11.960;2023-11-18T15:28:16;8.45;;;5.60;;